Time;durP1;ratioP1;P1;durP2;ratioP2;P2;SDS_P1;SDS_P2;PMS_P1;PMS_P2;Temp;Humidity;BMP_temperature;BMP_pressure;BME280_temperature;BME280_humidity;BME280_pressure;Samples;Min_cycle;Max_cycle;Signal;HPM_P1;HPM_P2
2023/07/11 00:07:03;;;;;;;2.78;0.93;;;19.00;1.00;;;;;;20593287;28;20105;-44
2023/07/11 00:17:24;;;;;;;4.13;1.10;;;19.00;1.00;;;;;;20596587;28;20129;-43
2023/07/11 00:27:45;;;;;;;3.17;0.90;;;18.80;1.00;;;;;;20593566;28;20181;-44
2023/07/11 00:38:06;;;;;;;7.55;1.50;;;18.70;1.00;;;;;;20600093;28;20774;-44
2023/07/11 00:48:28;;;;;;;2.58;1.10;;;18.60;1.00;;;;;;20596882;28;20476;-43
2023/07/11 00:58:50;;;;;;;2.00;0.90;;;18.50;1.00;;;;;;20594478;28;20135;-43
2023/07/11 01:09:12;;;;;;;2.35;0.90;;;18.40;1.00;;;;;;20600978;28;20613;-43
2023/07/11 01:19:33;;;;;;;2.35;1.20;;;18.40;1.00;;;;;;20617953;28;20752;-44
2023/07/11 01:29:54;;;;;;;2.30;1.08;;;18.30;1.00;;;;;;20609368;28;20129;-43
2023/07/11 01:40:15;;;;;;;2.65;1.20;;;18.20;1.00;;;;;;20606079;28;20541;-44
2023/07/11 01:50:36;;;;;;;3.17;1.20;;;18.20;1.00;;;;;;20617312;28;20224;-43
2023/07/11 02:00:57;;;;;;;2.67;1.20;;;18.20;1.00;;;;;;20608757;28;20070;-44
2023/07/11 02:11:19;;;;;;;3.40;1.15;;;18.20;1.00;;;;;;20610864;28;20153;-44
2023/07/11 02:21:40;;;;;;;4.25;1.40;;;18.10;1.00;;;;;;20612009;28;20070;-43
2023/07/11 02:32:01;;;;;;;2.42;1.17;;;18.00;1.00;;;;;;20612625;28;20881;-43
2023/07/11 02:42:22;;;;;;;2.47;0.90;;;18.00;1.00;;;;;;20606133;28;20078;-43
2023/07/11 02:52:43;;;;;;;2.42;1.08;;;17.90;1.00;;;;;;20602116;28;20118;-43
2023/07/11 03:03:04;;;;;;;5.10;1.30;;;17.90;1.00;;;;;;20605632;28;20138;-43
2023/07/11 03:13:26;;;;;;;3.17;1.02;;;17.90;1.00;;;;;;20602344;28;20561;-44
2023/07/11 03:23:47;;;;;;;4.05;1.33;;;17.80;1.00;;;;;;20608183;28;20096;-43
2023/07/11 03:34:09;;;;;;;2.72;1.27;;;17.70;1.00;;;;;;20612264;28;20070;-44
2023/07/11 03:44:30;;;;;;;5.35;1.80;;;17.70;1.00;;;;;;20599877;28;20236;-43
2023/07/11 03:54:51;;;;;;;3.70;1.25;;;17.60;1.00;;;;;;20605868;28;20093;-43
2023/07/11 04:05:13;;;;;;;5.05;1.55;;;17.60;1.00;;;;;;20595742;28;20058;-43
2023/07/11 04:15:34;;;;;;;4.82;1.67;;;17.50;1.00;;;;;;20605802;28;20116;-43
2023/07/11 04:25:55;;;;;;;4.97;1.95;;;17.60;1.00;;;;;;20602853;28;20125;-43
2023/07/11 04:36:16;;;;;;;4.65;2.08;;;17.70;1.00;;;;;;20610819;28;20038;-43
2023/07/11 04:46:37;;;;;;;6.18;2.38;;;17.90;1.00;;;;;;20617345;28;20133;-43
2023/07/11 04:56:59;;;;;;;13.30;5.53;;;18.20;1.00;;;;;;20614811;28;20145;-43
2023/07/11 05:07:20;;;;;;;12.98;6.63;;;18.50;1.00;;;;;;20613286;28;20125;-43
2023/07/11 05:17:41;;;;;;;10.65;7.63;;;19.00;1.00;;;;;;20612248;28;20213;-43
2023/07/11 05:28:02;;;;;;;11.88;6.35;;;19.40;1.00;;;;;;20609032;28;20156;-43
2023/07/11 05:38:23;;;;;;;14.55;8.07;;;19.50;1.00;;;;;;20613038;28;20168;-44
2023/07/11 05:48:44;;;;;;;12.65;7.15;;;19.70;1.00;;;;;;20616229;28;20188;-43
2023/07/11 05:59:06;;;;;;;9.55;5.75;;;20.20;1.00;;;;;;20610692;28;20182;-43
2023/07/11 06:09:27;;;;;;;6.10;4.15;;;20.50;1.00;;;;;;20614232;28;20121;-44
2023/07/11 06:19:48;;;;;;;5.68;3.45;;;20.90;1.00;;;;;;20617691;28;20077;-44
2023/07/11 06:30:09;;;;;;;7.95;4.63;;;21.10;1.00;;;;;;20619603;28;20144;-44
2023/07/11 06:40:30;;;;;;;7.78;4.35;;;21.50;1.00;;;;;;20613773;28;20618;-44
2023/07/11 06:50:54;;;;;;;6.72;3.78;;;21.70;1.00;;;;;;20610958;28;20164;-44
2023/07/11 07:01:16;;;;;;;6.97;3.42;;;21.90;1.00;;;;;;20609942;28;20078;-44
2023/07/11 07:11:37;;;;;;;6.05;2.83;;;22.00;1.00;;;;;;20604344;28;20153;-44
2023/07/11 07:21:58;;;;;;;5.57;2.50;;;22.40;1.00;;;;;;20607436;28;20148;-44
2023/07/11 07:32:19;;;;;;;5.32;2.50;;;22.60;1.00;;;;;;20601958;28;20066;-44
2023/07/11 07:42:40;;;;;;;6.82;2.90;;;22.90;1.00;;;;;;20606104;28;20057;-44
2023/07/11 07:53:01;;;;;;;4.47;2.17;;;23.20;1.00;;;;;;20612473;28;20133;-44
2023/07/11 08:03:22;;;;;;;6.78;2.35;;;23.60;1.00;;;;;;20611344;28;20058;-44
2023/07/11 08:13:44;;;;;;;6.93;2.38;;;23.90;1.00;;;;;;20607900;28;20118;-44
2023/07/11 08:24:06;;;;;;;6.15;2.22;;;24.20;1.00;;;;;;20620323;28;20093;-44
2023/07/11 08:34:27;;;;;;;5.65;1.92;;;24.50;1.00;;;;;;20620378;28;20133;-44
2023/07/11 08:44:56;;;;;;;5.68;2.08;;;24.80;1.00;;;;;;20620578;28;20125;-45
2023/07/11 08:55:33;;;;;;;5.72;1.98;;;25.00;1.00;;;;;;20621164;28;20148;-44
2023/07/11 09:06:01;;;;;;;5.17;1.83;;;25.30;1.00;;;;;;20614898;28;20132;-45
2023/07/11 09:16:36;;;;;;;11.82;2.17;;;25.50;1.00;;;;;;20610945;28;20137;-45
2023/07/11 09:27:20;;;;;;;3.88;1.73;;;25.70;1.00;;;;;;20614480;28;20579;-45
2023/07/11 09:37:46;;;;;;;4.00;1.95;;;25.80;1.00;;;;;;20589392;28;20506;-45
2023/07/11 09:48:27;;;;;;;4.68;1.83;;;26.10;1.00;;;;;;20610507;28;20184;-45
2023/07/11 09:58:59;;;;;;;4.40;1.90;;;26.20;1.00;;;;;;20611443;28;20142;-45
2023/07/11 10:09:36;;;;;;;4.40;1.85;;;26.40;1.00;;;;;;20610007;28;20174;-44
2023/07/11 10:20:00;;;;;;;5.43;2.10;;;26.00;1.00;;;;;;20634714;28;20104;-45
2023/07/11 10:30:25;;;;;;;3.92;1.90;;;26.10;1.00;;;;;;20620611;28;20046;-44
2023/07/11 10:40:51;;;;;;;5.18;2.10;;;26.50;1.00;;;;;;20623936;28;20046;-44
2023/07/11 10:51:22;;;;;;;5.40;1.80;;;26.70;1.00;;;;;;20611201;28;20065;-44
2023/07/11 11:01:57;;;;;;;7.57;2.65;;;26.70;1.00;;;;;;20593946;28;20148;-45
2023/07/11 11:12:18;;;;;;;4.85;2.22;;;27.00;1.00;;;;;;20587602;28;20120;-44
2023/07/11 11:23:05;;;;;;;4.18;2.45;;;27.20;1.00;;;;;;20598486;28;20153;-44
2023/07/11 11:33:51;;;;;;;5.57;2.20;;;27.50;1.00;;;;;;20606707;28;20066;-44
2023/07/11 11:44:22;;;;;;;5.10;2.25;;;27.60;1.00;;;;;;20603018;28;20131;-45
2023/07/11 11:54:46;;;;;;;5.10;2.10;;;27.80;1.00;;;;;;20602305;28;20137;-44
2023/07/11 12:05:21;;;;;;;4.68;2.20;;;27.80;1.00;;;;;;20603845;28;20165;-44
2023/07/11 12:15:47;;;;;;;6.28;2.92;;;28.20;1.00;;;;;;20602933;28;20125;-45
2023/07/11 12:26:22;;;;;;;4.05;1.75;;;28.40;1.00;;;;;;20612540;28;20077;-45
2023/07/11 12:36:56;;;;;;;5.95;2.67;;;28.70;1.00;;;;;;20600989;28;20603;-45
2023/07/11 12:47:19;;;;;;;5.25;2.65;;;28.80;1.00;;;;;;20606001;28;20748;-45
2023/07/11 12:57:44;;;;;;;7.00;2.88;;;28.80;1.00;;;;;;20611001;28;20042;-45
2023/07/11 13:08:13;;;;;;;5.53;2.63;;;29.00;1.00;;;;;;20622264;28;20164;-45
2023/07/11 13:18:37;;;;;;;4.35;2.42;;;29.10;1.00;;;;;;20619687;28;20578;-45
2023/07/11 13:29:14;;;;;;;6.82;3.20;;;28.30;1.00;;;;;;20607117;28;20125;-45
2023/07/11 13:39:46;;;;;;;4.43;2.70;;;28.10;1.00;;;;;;20512475;28;20027;-45
2023/07/11 13:50:15;;;;;;;6.05;2.60;;;28.00;1.00;;;;;;20521767;28;20431;-45
2023/07/11 14:00:19;;;;;;;5.57;2.15;;;28.10;1.00;;;;;;20511374;28;20695;-45
2023/07/11 14:10:23;;;;;;;4.15;1.90;;;27.80;1.00;;;;;;20583806;28;20038;-45
2023/07/11 14:20:26;;;;;;;4.40;1.83;;;28.00;1.00;;;;;;20587940;28;20453;-45
2023/07/11 14:30:29;;;;;;;6.10;2.05;;;28.20;1.00;;;;;;20585779;28;20124;-45
2023/07/11 14:40:31;;;;;;;3.53;2.03;;;28.30;1.00;;;;;;20581988;28;20035;-45
2023/07/11 14:50:32;;;;;;;3.38;1.63;;;28.30;1.00;;;;;;20579324;28;20581;-45
2023/07/11 15:00:33;;;;;;;5.53;1.98;;;28.20;1.00;;;;;;20577705;28;20054;-45
2023/07/11 15:10:35;;;;;;;4.63;1.88;;;28.00;1.00;;;;;;20570226;28;20100;-45
2023/07/11 15:20:36;;;;;;;3.95;2.00;;;27.80;1.00;;;;;;20576959;28;20031;-45
2023/07/11 15:30:41;;;;;;;2.80;1.40;;;27.50;1.00;;;;;;20578900;28;20449;-45
2023/07/11 15:40:42;;;;;;;2.33;1.05;;;27.40;1.00;;;;;;20574722;28;20124;-45
2023/07/11 15:50:43;;;;;;;2.38;1.00;;;27.10;1.00;;;;;;20573919;28;20565;-45
2023/07/11 16:00:45;;;;;;;4.28;1.17;;;27.20;1.00;;;;;;20574857;28;20506;-45
2023/07/11 16:10:48;;;;;;;4.97;1.58;;;26.70;1.00;;;;;;20572468;28;20617;-45
2023/07/11 16:20:52;;;;;;;2.08;0.80;;;26.50;1.00;;;;;;20569365;28;20096;-45
2023/07/11 16:30:59;;;;;;;3.90;1.48;;;26.40;1.00;;;;;;20584704;28;20628;-44
2023/07/11 16:41:00;;;;;;;4.45;1.10;;;26.30;1.00;;;;;;20593562;28;20034;-44
2023/07/11 16:51:03;;;;;;;3.30;1.10;;;26.20;1.00;;;;;;20600028;28;20105;-44
2023/07/11 17:01:04;;;;;;;2.95;1.30;;;26.10;1.00;;;;;;20589254;28;20320;-44
2023/07/11 17:11:06;;;;;;;4.70;1.50;;;25.90;1.00;;;;;;20561592;28;20152;-45
2023/07/11 18:19:21;;;;;;;2.78;1.17;;;25.00;1.00;;;;;;20790268;28;20053;-87
2023/07/11 18:29:43;;;;;;;;;;;24.90;1.00;;;;;;20801884;28;20049;-85
2023/07/11 18:40:31;;;;;;;2.85;1.10;;;24.40;1.00;;;;;;20804551;28;20422;-87
2023/07/11 18:50:53;;;;;;;3.40;0.90;;;24.20;1.00;;;;;;20813393;28;20036;-87
2023/07/11 19:01:14;;;;;;;2.70;1.00;;;23.90;1.00;;;;;;20821522;28;20049;-86
2023/07/11 19:11:35;;;;;;;1.58;0.75;;;23.70;1.00;;;;;;20823440;28;20045;-89
2023/07/11 19:21:57;;;;;;;1.67;0.70;;;23.60;1.00;;;;;;20821253;28;20041;-88
2023/07/11 19:32:18;;;;;;;2.40;0.80;;;23.20;1.00;;;;;;20828803;28;20052;-90
2023/07/11 19:42:40;;;;;;;1.63;0.65;;;22.90;1.00;;;;;;20852041;28;20037;-89
2023/07/11 19:53:02;;;;;;;1.40;0.50;;;22.90;1.00;;;;;;20860077;28;20079;-88
2023/07/11 20:03:25;;;;;;;2.13;0.52;;;22.70;1.00;;;;;;20888729;28;20036;-91
2023/07/11 20:13:47;;;;;;;1.80;0.50;;;22.20;1.00;;;;;;20818159;28;20040;-88
2023/07/11 20:24:08;;;;;;;1.45;0.50;;;21.70;1.00;;;;;;20820544;28;20556;-92
2023/07/11 20:34:29;;;;;;;1.30;0.60;;;21.40;1.00;;;;;;20815436;28;20041;-88
2023/07/11 20:44:51;;;;;;;2.22;0.90;;;21.30;1.00;;;;;;20811969;28;20033;-89
2023/07/11 20:55:12;;;;;;;1.80;0.63;;;21.30;1.00;;;;;;20784732;28;20064;-89
2023/07/11 21:05:38;;;;;;;1.88;0.85;;;21.30;1.00;;;;;;20738550;28;20525;-88
2023/07/11 21:16:00;;;;;;;1.85;0.90;;;21.20;1.00;;;;;;20758926;28;20034;-88
2023/07/11 21:26:22;;;;;;;3.65;0.98;;;21.10;1.00;;;;;;20741004;28;20045;-90
2023/07/11 21:36:43;;;;;;;2.50;1.02;;;21.10;1.00;;;;;;20772954;28;20038;-89
2023/07/11 21:47:04;;;;;;;4.53;1.40;;;21.10;1.00;;;;;;20761443;28;20129;-90
2023/07/11 21:57:26;;;;;;;3.25;1.00;;;20.80;1.00;;;;;;20755038;28;20025;-88
2023/07/11 22:07:47;;;;;;;2.80;1.20;;;20.60;1.00;;;;;;20757813;28;20314;-89
2023/07/11 22:18:34;;;;;;;2.80;1.10;;;20.30;1.00;;;;;;20761302;28;20056;-88
2023/07/11 22:28:56;;;;;;;2.22;1.20;;;20.20;1.00;;;;;;20771481;28;20048;-89
2023/07/11 22:39:19;;;;;;;3.17;1.30;;;20.00;1.00;;;;;;20778438;28;20056;-88
2023/07/11 22:49:41;;;;;;;3.33;1.35;;;19.90;1.00;;;;;;20793787;28;20045;-90
2023/07/11 23:00:04;;;;;;;4.95;1.42;;;19.70;1.00;;;;;;20789986;28;20045;-90
2023/07/11 23:10:32;;;;;;;4.75;1.95;;;19.50;1.00;;;;;;20782082;28;20038;-91
2023/07/11 23:20:56;;;;;;;4.80;1.70;;;19.40;1.00;;;;;;20786347;28;20057;-90
2023/07/11 23:31:19;;;;;;;6.72;1.65;;;19.40;1.00;;;;;;20780918;28;20037;-89
2023/07/11 23:41:40;;;;;;;4.53;1.80;;;19.30;1.00;;;;;;20786790;28;20052;-91
2023/07/11 23:52:01;;;;;;;4.85;1.42;;;19.40;1.00;;;;;;20818258;28;20099;-89
